Terminal Aerodrome Forecast
Issued by NWS

Home | Current Version | Previous Version | Text Only | Print | Product List | Glossary On
Versions: 1 2 3 4 5 6 7 8 9 10 11 12 13 14 15 16 17 18 19 20 21 22 23 24 25 26 27 28 29 30 31 32 33 34
000
FTUS41 KAKQ 201720
TAFPHF
TAF
KPHF 201720Z 2018/2118 23013G21KT P6SM SCT035
     FM202200 24013G20KT 3SM TSRA BKN025CB BKN080
     FM210100 25012G19KT P6SM VCSH BKN100
     FM210400 25011G18KT P6SM SCT250
     FM211300 30016G26KT P6SM SCT060=

USA.gov is the U.S. government's official web portal to all federal, state and local government web resources and services.